Time;durP1;ratioP1;P1;durP2;ratioP2;P2;SDS_P1;SDS_P2;PMS_P1;PMS_P2;Temp;Humidity;BMP_temperature;BMP_pressure;BME280_temperature;BME280_humidity;BME280_pressure;Samples;Min_cycle;Max_cycle;Signal;HPM_P1;HPM_P2
2023/04/06 00:00:29;;;;;;;9.83;6.47;;;8.40;91.30;;;;;;5071234;28;20207;-72
2023/04/06 00:02:58;;;;;;;10.77;7.03;;;8.40;91.30;;;;;;5066020;28;20190;-75
2023/04/06 00:05:27;;;;;;;10.87;7.27;;;8.40;91.30;;;;;;5080466;28;20212;-73
2023/04/06 00:07:55;;;;;;;10.50;6.90;;;8.40;91.20;;;;;;5077391;28;20186;-74
2023/04/06 00:10:24;;;;;;;12.63;7.50;;;8.40;91.30;;;;;;5071709;28;20247;-74
2023/04/06 00:12:53;;;;;;;12.27;7.83;;;8.50;91.20;;;;;;5067309;28;20229;-74
2023/04/06 00:15:23;;;;;;;12.30;7.80;;;8.40;91.10;;;;;;5068611;28;20253;-74
2023/04/06 00:17:51;;;;;;;11.17;7.23;;;8.40;91.10;;;;;;5068179;28;20225;-73
2023/04/06 00:20:20;;;;;;;12.40;7.67;;;8.40;91.10;;;;;;5076720;28;20654;-74
2023/04/06 00:22:49;;;;;;;13.30;8.17;;;8.30;91.00;;;;;;5070324;28;20194;-74
2023/04/06 00:25:17;;;;;;;15.33;8.37;;;8.30;91.10;;;;;;5066341;28;20194;-73
2023/04/06 00:27:46;;;;;;;9.70;6.80;;;8.30;91.10;;;;;;5070499;28;20596;-74
2023/04/06 00:30:14;;;;;;;13.00;8.23;;;8.30;91.10;;;;;;5069986;28;20604;-75
2023/04/06 00:32:44;;;;;;;13.87;7.90;;;8.30;91.10;;;;;;5067572;28;20223;-76
2023/04/06 00:35:12;;;;;;;11.23;7.57;;;8.20;91.10;;;;;;5068732;28;20228;-75
2023/04/06 00:37:41;;;;;;;12.47;8.10;;;8.20;91.20;;;;;;5065618;28;20307;-75
2023/04/06 00:40:10;;;;;;;10.60;7.10;;;8.20;91.20;;;;;;5072580;28;20303;-74
2023/04/06 00:42:39;;;;;;;11.97;7.80;;;8.20;91.20;;;;;;5066491;28;20259;-74
2023/04/06 00:45:09;;;;;;;12.90;7.97;;;8.30;91.30;;;;;;5067837;28;20198;-73
2023/04/06 00:47:37;;;;;;;11.87;7.43;;;8.20;91.30;;;;;;5070892;28;20194;-74
2023/04/06 00:50:08;;;;;;;11.23;7.97;;;8.30;91.20;;;;;;5067617;28;20226;-75
2023/04/06 00:52:37;;;;;;;12.87;8.47;;;8.20;91.10;;;;;;5066358;28;20206;-73
2023/04/06 00:55:06;;;;;;;13.97;7.87;;;8.20;91.10;;;;;;5069599;28;20222;-72
2023/04/06 00:57:35;;;;;;;15.47;8.80;;;8.20;91.10;;;;;;5066515;28;20553;-73
2023/04/06 01:00:04;;;;;;;13.37;8.53;;;8.20;91.20;;;;;;5067405;28;20246;-74
2023/04/06 01:02:32;;;;;;;12.70;8.30;;;8.20;91.20;;;;;;5065413;28;20182;-73
2023/04/06 01:05:01;;;;;;;14.63;8.67;;;8.20;91.20;;;;;;5070289;28;20218;-73
2023/04/06 01:07:31;;;;;;;13.90;9.00;;;8.20;91.20;;;;;;5068132;28;20248;-73
2023/04/06 01:09:59;;;;;;;12.57;8.60;;;8.20;91.20;;;;;;5068000;28;20199;-72
2023/04/06 01:12:27;;;;;;;14.27;8.83;;;8.20;91.20;;;;;;5067631;28;20194;-74
2023/04/06 01:14:56;;;;;;;15.57;9.20;;;8.20;91.20;;;;;;5069658;28;20251;-73
2023/04/06 01:17:24;;;;;;;14.57;9.13;;;8.20;91.30;;;;;;5070665;28;20595;-74
2023/04/06 01:19:53;;;;;;;14.03;9.10;;;8.10;91.30;;;;;;5071707;28;20214;-73
2023/04/06 01:22:25;;;;;;;14.03;8.97;;;8.10;91.30;;;;;;5067783;28;20587;-73
2023/04/06 01:24:53;;;;;;;14.03;9.13;;;8.10;91.40;;;;;;5064943;28;20186;-73
2023/04/06 01:27:21;;;;;;;13.80;9.13;;;8.10;91.40;;;;;;5065336;28;20202;-75
2023/04/06 01:29:50;;;;;;;15.50;9.27;;;8.20;91.50;;;;;;5073828;28;20834;-73
2023/04/06 01:32:18;;;;;;;16.60;9.63;;;8.10;91.50;;;;;;5060325;28;20787;-75
2023/04/06 01:34:47;;;;;;;13.43;8.33;;;8.20;91.50;;;;;;5072859;28;20186;-74
2023/04/06 01:37:15;;;;;;;15.10;9.20;;;8.20;91.60;;;;;;5075016;28;20194;-73
2023/04/06 01:39:46;;;;;;;15.07;9.10;;;8.20;91.50;;;;;;5079841;28;20183;-72
2023/04/06 01:42:14;;;;;;;13.73;8.73;;;8.20;91.50;;;;;;5074605;28;20191;-74
2023/04/06 01:44:42;;;;;;;17.47;10.20;;;8.20;91.50;;;;;;5073980;28;20255;-74
2023/04/06 01:47:11;;;;;;;13.67;10.03;;;8.20;91.50;;;;;;5073394;28;20313;-73
2023/04/06 01:49:39;;;;;;;16.60;9.90;;;8.20;91.60;;;;;;5074552;28;20203;-74
2023/04/06 01:52:08;;;;;;;13.97;9.20;;;8.20;91.60;;;;;;5068803;28;20243;-73
2023/04/06 01:54:36;;;;;;;16.63;8.67;;;8.10;91.60;;;;;;5071134;28;20198;-75
2023/04/06 01:57:06;;;;;;;16.40;10.13;;;8.10;91.70;;;;;;5071656;28;20186;-72
2023/04/06 01:59:34;;;;;;;14.80;9.80;;;8.10;91.70;;;;;;5073588;28;20208;-74
2023/04/06 02:02:03;;;;;;;15.10;9.50;;;8.10;91.80;;;;;;5076241;28;20214;-74
2023/04/06 02:04:31;;;;;;;15.10;8.80;;;8.00;91.80;;;;;;5074755;28;20201;-74
2023/04/06 02:07:00;;;;;;;14.17;9.13;;;8.10;91.90;;;;;;5065223;28;20194;-74
2023/04/06 02:09:28;;;;;;;15.37;9.13;;;8.10;91.90;;;;;;5071827;28;20190;-73
2023/04/06 02:11:56;;;;;;;15.57;9.20;;;8.00;91.90;;;;;;5069702;28;20245;-73
2023/04/06 02:14:27;;;;;;;16.33;9.67;;;8.00;92.00;;;;;;5066114;28;20251;-74
2023/04/06 02:16:55;;;;;;;13.83;8.57;;;8.00;92.00;;;;;;5060016;28;20222;-74
2023/04/06 02:19:24;;;;;;;14.80;9.30;;;8.00;92.10;;;;;;5057994;28;20186;-74
2023/04/06 02:21:52;;;;;;;15.00;9.20;;;8.00;92.10;;;;;;5071375;28;20748;-73
2023/04/06 02:24:20;;;;;;;16.57;10.10;;;8.00;92.10;;;;;;5063062;28;20643;-73
2023/04/06 02:26:49;;;;;;;15.57;9.40;;;8.00;92.20;;;;;;5069276;28;20198;-72
2023/04/06 02:29:17;;;;;;;15.50;10.17;;;8.10;92.10;;;;;;5068954;28;20183;-76
2023/04/06 02:31:47;;;;;;;16.70;9.10;;;8.00;92.10;;;;;;5073463;28;20222;-74
2023/04/06 02:34:17;;;;;;;14.33;9.43;;;8.10;92.20;;;;;;5075182;28;20638;-73
2023/04/06 02:36:46;;;;;;;16.17;9.47;;;8.10;92.10;;;;;;5060745;28;20273;-73
2023/04/06 02:39:15;;;;;;;18.83;9.93;;;8.20;92.10;;;;;;5064972;28;20659;-73
2023/04/06 02:41:44;;;;;;;17.23;9.43;;;8.20;92.10;;;;;;5066848;28;20214;-72
2023/04/06 02:44:12;;;;;;;17.27;9.77;;;8.10;92.10;;;;;;5070304;28;20194;-74
2023/04/06 02:46:41;;;;;;;15.43;9.60;;;8.10;92.10;;;;;;5060233;28;20190;-74
2023/04/06 02:49:10;;;;;;;16.73;9.37;;;8.10;92.10;;;;;;5065913;28;20219;-72
2023/04/06 02:51:39;;;;;;;17.93;10.27;;;8.10;92.10;;;;;;5067612;28;20225;-73
2023/04/06 02:54:07;;;;;;;15.37;9.00;;;8.10;92.20;;;;;;5061594;28;20230;-73
2023/04/06 02:56:36;;;;;;;14.97;9.97;;;8.20;92.10;;;;;;5056871;28;20260;-73
2023/04/06 02:59:05;;;;;;;17.07;9.30;;;8.20;92.20;;;;;;5063790;28;20202;-75
2023/04/06 03:01:33;;;;;;;17.03;10.70;;;8.10;92.20;;;;;;5061033;28;20297;-75
2023/04/06 03:04:02;;;;;;;17.23;10.33;;;8.20;92.20;;;;;;5064323;28;20670;-74
2023/04/06 03:06:32;;;;;;;17.30;10.40;;;8.10;92.20;;;;;;5067529;28;20263;-72
2023/04/06 03:09:00;;;;;;;15.87;9.97;;;8.10;92.20;;;;;;5059305;28;20418;-74
2023/04/06 03:11:28;;;;;;;16.47;10.63;;;8.10;92.30;;;;;;5057262;28;20261;-74
2023/04/06 03:13:57;;;;;;;18.67;10.60;;;8.10;92.30;;;;;;5059554;28;20249;-76
2023/04/06 03:16:25;;;;;;;18.57;10.57;;;8.10;92.30;;;;;;5058688;28;20183;-73
2023/04/06 03:18:54;;;;;;;19.00;10.60;;;8.10;92.40;;;;;;5068129;28;20596;-73
2023/04/06 03:21:22;;;;;;;15.40;10.00;;;8.00;92.40;;;;;;5066853;28;20214;-75
2023/04/06 03:23:52;;;;;;;16.80;10.90;;;8.10;92.50;;;;;;5072026;28;20191;-73
2023/04/06 03:26:22;;;;;;;18.13;11.03;;;8.00;92.60;;;;;;5067052;28;20244;-74
2023/04/06 03:28:50;;;;;;;19.47;11.27;;;8.10;92.50;;;;;;5066771;28;20263;-73
2023/04/06 03:31:19;;;;;;;17.97;10.83;;;8.00;92.50;;;;;;5067333;28;20194;-76
2023/04/06 03:33:47;;;;;;;20.30;11.60;;;8.00;92.60;;;;;;5072710;28;20222;-74
2023/04/06 03:36:16;;;;;;;23.23;11.13;;;8.00;92.60;;;;;;5072938;28;20194;-76
2023/04/06 03:38:44;;;;;;;18.67;11.07;;;8.00;92.70;;;;;;5082357;28;20182;-73
2023/04/06 03:41:14;;;;;;;19.20;10.50;;;8.00;92.80;;;;;;5077414;28;20229;-73
2023/04/06 03:43:43;;;;;;;19.00;11.07;;;7.90;92.80;;;;;;5071370;28;20210;-75
2023/04/06 03:46:11;;;;;;;15.83;10.37;;;7.90;92.80;;;;;;5081206;28;20191;-74
2023/04/06 03:48:40;;;;;;;21.57;10.37;;;7.90;92.80;;;;;;5076201;28;20197;-72
2023/04/06 03:51:08;;;;;;;21.60;11.30;;;7.90;92.80;;;;;;5075215;28;20217;-74
2023/04/06 03:53:37;;;;;;;16.73;10.60;;;7.90;92.90;;;;;;5080794;28;20198;-74
2023/04/06 03:56:06;;;;;;;20.60;11.23;;;7.90;92.90;;;;;;5069900;28;20191;-73
2023/04/06 03:58:36;;;;;;;20.13;10.90;;;7.90;93.00;;;;;;5071487;28;20191;-74
2023/04/06 04:01:05;;;;;;;25.10;10.97;;;7.90;93.00;;;;;;5079047;28;20202;-73
2023/04/06 04:03:33;;;;;;;19.10;11.23;;;7.90;93.00;;;;;;5073334;28;20651;-74
2023/04/06 04:06:02;;;;;;;19.60;11.20;;;7.90;93.10;;;;;;5069240;28;20595;-73
2023/04/06 04:08:30;;;;;;;18.83;11.47;;;7.90;93.20;;;;;;5065638;28;20240;-72
2023/04/06 04:10:58;;;;;;;19.53;11.57;;;7.90;93.20;;;;;;5059134;28;20202;-73
2023/04/06 04:13:27;;;;;;;20.00;10.77;;;7.90;93.20;;;;;;5065880;28;20191;-75
2023/04/06 04:15:57;;;;;;;22.33;12.33;;;7.90;93.20;;;;;;5069067;28;20218;-75
2023/04/06 04:18:26;;;;;;;20.87;12.23;;;7.90;93.20;;;;;;5073916;28;20278;-74
2023/04/06 04:20:54;;;;;;;21.30;11.77;;;7.90;93.20;;;;;;5070703;28;20244;-72
2023/04/06 04:23:22;;;;;;;20.50;12.20;;;7.90;93.30;;;;;;5068581;28;20306;-73
2023/04/06 04:25:51;;;;;;;18.30;11.80;;;7.90;93.30;;;;;;5069085;28;20869;-74
2023/04/06 04:28:19;;;;;;;17.87;11.37;;;7.90;93.30;;;;;;5069845;28;20190;-72
2023/04/06 04:30:48;;;;;;;20.07;10.97;;;7.90;93.30;;;;;;5079342;28;20229;-75
2023/04/06 04:33:18;;;;;;;18.87;11.30;;;8.00;93.60;;;;;;5069897;28;20226;-73
2023/04/06 04:35:46;;;;;;;16.70;10.53;;;7.90;93.20;;;;;;5073579;28;20190;-74
2023/04/06 04:38:14;;;;;;;18.33;11.57;;;8.00;93.20;;;;;;5070403;28;20187;-74
2023/04/06 04:40:43;;;;;;;16.40;11.00;;;7.90;93.20;;;;;;5071983;28;20264;-74
2023/04/06 04:43:11;;;;;;;17.93;11.63;;;7.90;93.20;;;;;;5075246;28;20225;-74
2023/04/06 04:45:40;;;;;;;18.93;11.17;;;7.90;93.20;;;;;;5063125;28;20203;-76
2023/04/06 04:48:09;;;;;;;19.80;10.77;;;8.00;93.10;;;;;;5063736;28;20559;-74
2023/04/06 04:50:39;;;;;;;19.40;10.87;;;8.00;93.20;;;;;;5058449;28;20195;-72
2023/04/06 04:53:07;;;;;;;22.87;12.37;;;8.10;93.10;;;;;;5059735;28;20191;-73
2023/04/06 04:55:35;;;;;;;26.33;12.23;;;8.00;93.10;;;;;;5071116;28;20246;-72
2023/04/06 04:58:04;;;;;;;21.87;11.90;;;8.10;93.10;;;;;;5070377;28;20256;-72
2023/04/06 05:00:32;;;;;;;17.77;11.33;;;8.10;93.00;;;;;;5071206;28;20186;-72
2023/04/06 05:03:01;;;;;;;20.27;11.13;;;8.00;93.00;;;;;;5074214;28;20246;-72
2023/04/06 05:05:29;;;;;;;20.47;11.77;;;8.10;93.00;;;;;;5074431;28;20198;-73
2023/04/06 05:07:59;;;;;;;18.50;11.27;;;8.10;93.00;;;;;;5076937;28;20198;-72
2023/04/06 05:10:28;;;;;;;20.73;11.17;;;8.10;92.90;;;;;;5074428;28;20193;-74
2023/04/06 05:12:56;;;;;;;20.57;10.70;;;8.10;92.90;;;;;;5070893;28;20655;-72
2023/04/06 05:15:25;;;;;;;20.97;11.73;;;8.10;92.90;;;;;;5077125;28;20194;-73
2023/04/06 05:17:53;;;;;;;16.80;10.67;;;8.20;93.00;;;;;;5059982;28;20842;-74
2023/04/06 05:20:22;;;;;;;20.67;11.53;;;8.20;92.80;;;;;;5073620;28;20285;-74
2023/04/06 05:22:50;;;;;;;20.83;11.23;;;8.20;92.80;;;;;;5077954;28;20215;-72
2023/04/06 05:25:21;;;;;;;17.73;11.00;;;8.30;92.70;;;;;;5070481;28;20194;-73
2023/04/06 05:27:49;;;;;;;18.97;11.50;;;8.30;92.60;;;;;;5069340;28;20183;-74
2023/04/06 05:30:18;;;;;;;17.67;10.80;;;8.30;92.50;;;;;;5070676;28;20194;-73
2023/04/06 05:32:46;;;;;;;16.93;10.37;;;8.30;92.60;;;;;;5062489;28;20717;-75
2023/04/06 05:35:15;;;;;;;23.27;10.43;;;8.30;92.50;;;;;;5070481;28;20586;-73
2023/04/06 05:37:43;;;;;;;16.37;10.77;;;8.30;92.50;;;;;;5075338;28;20195;-73
2023/04/06 05:40:12;;;;;;;20.00;11.00;;;8.30;92.50;;;;;;5066153;28;20244;-74
2023/04/06 05:42:43;;;;;;;19.80;10.23;;;8.30;92.50;;;;;;5078261;28;20271;-73
2023/04/06 05:45:16;;;;;;;19.23;10.50;;;8.30;92.40;;;;;;5070313;28;20198;-73
2023/04/06 05:47:45;;;;;;;16.97;10.40;;;8.30;92.50;;;;;;5067760;28;20191;-72
2023/04/06 05:50:16;;;;;;;16.20;10.07;;;8.30;92.40;;;;;;5065396;28;20186;-73
2023/04/06 05:52:46;;;;;;;18.10;9.17;;;8.40;92.40;;;;;;5071121;28;20190;-73
2023/04/06 05:55:14;;;;;;;18.03;10.47;;;8.40;92.30;;;;;;5069832;28;20199;-75
2023/04/06 05:57:44;;;;;;;21.40;10.43;;;8.40;92.30;;;;;;5067829;28;20643;-74
2023/04/06 06:00:14;;;;;;;19.93;10.90;;;8.30;92.20;;;;;;5072379;28;20244;-71
2023/04/06 06:02:43;;;;;;;18.67;9.83;;;8.40;92.20;;;;;;5071837;28;20301;-75
2023/04/06 06:05:11;;;;;;;17.37;9.27;;;8.40;92.10;;;;;;5069125;28;20186;-73
2023/04/06 06:07:40;;;;;;;19.60;10.37;;;8.30;92.20;;;;;;5070940;28;20244;-73
2023/04/06 06:10:09;;;;;;;19.50;10.87;;;8.40;92.20;;;;;;5075270;28;20700;-75
2023/04/06 06:12:38;;;;;;;14.97;9.07;;;8.40;92.70;;;;;;5071757;28;20202;-73
2023/04/06 06:15:09;;;;;;;16.83;10.23;;;8.40;92.20;;;;;;5076583;28;20189;-73
2023/04/06 06:17:38;;;;;;;18.57;9.80;;;8.50;92.20;;;;;;5070311;28;20252;-74
2023/04/06 06:20:08;;;;;;;15.23;9.40;;;8.50;92.20;;;;;;5071154;28;20187;-74
2023/04/06 06:22:37;;;;;;;20.70;10.30;;;8.50;92.10;;;;;;5081215;28;20221;-74
2023/04/06 06:25:05;;;;;;;15.53;9.67;;;8.60;92.00;;;;;;5072881;28;20195;-74
2023/04/06 06:27:34;;;;;;;14.37;9.43;;;8.60;92.10;;;;;;5071791;28;20187;-76
2023/04/06 06:30:02;;;;;;;17.50;10.10;;;8.60;92.00;;;;;;5067902;28;20198;-76
2023/04/06 06:32:33;;;;;;;16.63;10.10;;;8.70;92.00;;;;;;5076611;28;20841;-76
2023/04/06 06:35:02;;;;;;;16.70;9.03;;;8.60;91.70;;;;;;5071931;28;22626;-77
2023/04/06 06:37:30;;;;;;;15.33;8.97;;;8.70;91.70;;;;;;5072345;28;20202;-77
2023/04/06 06:39:59;;;;;;;14.77;8.83;;;8.70;91.70;;;;;;5068050;28;20253;-77
2023/04/06 06:42:27;;;;;;;16.80;9.00;;;8.70;91.70;;;;;;5070073;28;20244;-76
2023/04/06 06:44:56;;;;;;;19.03;9.93;;;8.70;91.70;;;;;;5069146;28;20191;-77
2023/04/06 06:47:25;;;;;;;20.80;10.73;;;8.80;91.70;;;;;;5071574;28;20689;-76
2023/04/06 06:49:56;;;;;;;15.33;9.27;;;8.80;91.60;;;;;;5070671;28;20259;-74
2023/04/06 06:52:24;;;;;;;14.83;9.00;;;8.90;91.60;;;;;;5077649;28;20239;-75
2023/04/06 06:54:53;;;;;;;17.63;8.90;;;8.90;91.50;;;;;;5071982;28;20190;-76
2023/04/06 06:57:24;;;;;;;14.67;8.60;;;9.00;91.50;;;;;;5071932;28;20718;-75
2023/04/06 07:02:41;;;;;;;21.30;8.27;;;9.10;91.20;;;;;;5069193;28;20203;-74
2023/04/06 07:05:11;;;;;;;14.60;8.23;;;9.20;91.20;;;;;;5069811;28;20205;-75
2023/04/06 07:07:54;;;;;;;17.13;8.40;;;9.20;91.00;;;;;;5068426;28;20194;-76
2023/04/06 07:10:23;;;;;;;15.43;8.80;;;9.20;91.00;;;;;;5069256;28;20271;-74
2023/04/06 07:12:51;;;;;;;16.87;8.53;;;9.30;91.00;;;;;;5071188;28;20194;-75
2023/04/06 07:15:20;;;;;;;15.70;8.20;;;9.30;90.90;;;;;;5071122;28;20625;-75
2023/04/06 07:17:48;;;;;;;16.50;8.37;;;9.30;90.70;;;;;;5072966;28;20198;-75
2023/04/06 07:20:19;;;;;;;11.73;7.90;;;9.40;90.70;;;;;;5069960;28;20224;-74
2023/04/06 07:22:48;;;;;;;14.43;7.90;;;9.40;90.70;;;;;;5072442;28;20638;-74
2023/04/06 07:25:16;;;;;;;15.20;8.37;;;9.50;90.60;;;;;;5071959;28;20600;-76
2023/04/06 07:27:45;;;;;;;14.60;7.87;;;9.50;90.50;;;;;;5070787;28;20639;-75
2023/04/06 07:30:13;;;;;;;13.97;8.07;;;9.60;90.50;;;;;;5069281;28;20187;-75
2023/04/06 07:32:42;;;;;;;14.77;7.57;;;9.60;90.30;;;;;;5070730;28;20284;-75
2023/04/06 07:35:10;;;;;;;13.90;8.17;;;9.70;90.20;;;;;;5072823;28;20229;-74
2023/04/06 07:37:40;;;;;;;12.80;6.80;;;9.70;90.10;;;;;;5069209;28;20272;-76
2023/04/06 07:40:09;;;;;;;14.73;8.50;;;9.70;90.10;;;;;;5070743;28;20190;-76
2023/04/06 07:42:38;;;;;;;9.33;6.30;;;9.80;89.80;;;;;;5071943;28;20659;-76
2023/04/06 07:45:07;;;;;;;14.63;7.37;;;9.90;89.70;;;;;;5072015;28;20222;-76
2023/04/06 07:47:35;;;;;;;12.23;7.53;;;9.90;89.80;;;;;;5069452;28;20198;-76
2023/04/06 07:50:05;;;;;;;11.17;7.07;;;10.10;89.50;;;;;;5070785;28;20647;-74
2023/04/06 07:52:33;;;;;;;12.97;7.10;;;10.20;89.50;;;;;;5072024;28;20190;-77
2023/04/06 07:55:07;;;;;;;10.87;6.87;;;10.20;88.40;;;;;;5069246;28;20190;-74
2023/04/06 07:57:35;;;;;;;9.67;6.50;;;10.30;88.80;;;;;;5068730;28;20202;-78
2023/04/06 08:00:05;;;;;;;14.10;6.50;;;10.40;87.90;;;;;;5069193;28;20248;-75
2023/04/06 08:02:33;;;;;;;9.83;6.90;;;10.40;87.90;;;;;;5068879;28;20195;-75
2023/04/06 08:05:02;;;;;;;12.70;7.40;;;10.40;87.90;;;;;;5069162;28;20305;-76
2023/04/06 08:07:30;;;;;;;13.37;6.97;;;10.50;87.90;;;;;;5068977;28;20658;-77
2023/04/06 08:09:59;;;;;;;12.57;6.83;;;10.60;88.00;;;;;;5070756;28;20190;-75
2023/04/06 08:12:29;;;;;;;10.40;6.30;;;10.60;87.30;;;;;;5066539;28;20252;-75
2023/04/06 08:14:58;;;;;;;15.63;7.30;;;10.70;87.20;;;;;;5067932;28;20190;-75
2023/04/06 08:17:29;;;;;;;9.80;6.70;;;10.80;87.30;;;;;;5071806;28;20187;-76
2023/04/06 08:19:58;;;;;;;14.03;6.87;;;10.90;86.60;;;;;;5071778;28;20211;-74
2023/04/06 08:22:27;;;;;;;11.83;6.57;;;10.90;85.90;;;;;;5071013;28;20194;-74
2023/04/06 08:24:55;;;;;;;11.73;6.97;;;11.00;86.10;;;;;;5068776;28;20611;-77
2023/04/06 08:27:24;;;;;;;14.57;7.43;;;11.00;85.90;;;;;;5070843;28;20191;-76
2023/04/06 08:29:53;;;;;;;10.43;7.03;;;11.00;85.60;;;;;;5071553;28;20198;-76
2023/04/06 08:32:22;;;;;;;12.20;7.83;;;11.10;86.10;;;;;;5070782;28;20293;-76
2023/04/06 08:34:53;;;;;;;14.27;7.63;;;11.20;86.00;;;;;;5069404;28;20212;-73
2023/04/06 08:37:23;;;;;;;11.33;7.43;;;11.20;86.10;;;;;;5069913;28;20183;-74
2023/04/06 08:39:51;;;;;;;13.73;8.23;;;11.30;86.20;;;;;;5071097;28;20186;-78
2023/04/06 08:42:21;;;;;;;12.20;7.47;;;11.40;85.60;;;;;;5071933;28;20240;-77
2023/04/06 08:44:52;;;;;;;12.63;7.50;;;11.40;84.70;;;;;;5070759;28;20259;-74
2023/04/06 08:47:22;;;;;;;11.60;7.57;;;11.40;84.90;;;;;;5067329;28;20647;-77
2023/04/06 08:49:53;;;;;;;11.97;7.50;;;11.40;84.60;;;;;;5071492;28;20253;-75
2023/04/06 08:52:22;;;;;;;12.30;7.93;;;11.50;84.80;;;;;;5071924;28;20198;-73
2023/04/06 08:54:50;;;;;;;13.27;7.23;;;11.50;85.10;;;;;;5071281;28;20651;-78
2023/04/06 08:57:20;;;;;;;11.50;8.07;;;11.50;84.40;;;;;;5068595;28;20244;-75
2023/04/06 08:59:49;;;;;;;13.23;7.47;;;11.50;84.10;;;;;;5071104;28;20725;-74
2023/04/06 09:02:19;;;;;;;17.17;8.47;;;11.50;83.90;;;;;;5068670;28;20190;-74
2023/04/06 09:04:53;;;;;;;15.70;8.57;;;11.50;84.00;;;;;;5070972;28;20229;-73
2023/04/06 09:07:22;;;;;;;14.40;8.53;;;11.60;83.70;;;;;;5072212;28;20270;-77
2023/04/06 09:09:51;;;;;;;14.00;8.37;;;11.60;83.60;;;;;;5069971;28;20243;-75
2023/04/06 09:12:27;;;;;;;11.90;7.97;;;11.50;83.70;;;;;;5068143;28;20190;-76
2023/04/06 09:14:57;;;;;;;14.43;7.90;;;11.50;83.70;;;;;;5069495;28;20183;-73
2023/04/06 09:17:26;;;;;;;13.60;8.20;;;11.60;83.40;;;;;;5073006;28;20552;-76
2023/04/06 09:19:57;;;;;;;12.23;8.50;;;11.60;83.30;;;;;;5071416;28;20190;-76
2023/04/06 09:22:27;;;;;;;12.70;8.30;;;11.60;83.10;;;;;;5068057;28;20194;-75
2023/04/06 09:24:55;;;;;;;13.43;7.77;;;11.60;83.10;;;;;;5067034;28;20586;-77
2023/04/06 09:27:31;;;;;;;12.07;7.87;;;11.70;83.70;;;;;;5081570;28;20247;-76
2023/04/06 09:30:13;;;;;;;14.57;8.83;;;11.70;83.30;;;;;;5063456;28;20199;-75
2023/04/06 09:32:49;;;;;;;13.17;8.13;;;11.70;82.60;;;;;;5068215;28;20633;-77
2023/04/06 09:35:20;;;;;;;12.70;7.90;;;11.70;82.40;;;;;;5065719;28;20249;-78
2023/04/06 09:37:51;;;;;;;14.00;8.00;;;11.80;82.50;;;;;;5072908;28;20194;-76
2023/04/06 09:40:21;;;;;;;12.77;7.13;;;11.90;82.60;;;;;;5068827;28;20187;-74
2023/04/06 09:42:52;;;;;;;16.37;8.00;;;11.90;81.90;;;;;;5066558;28;20193;-76
2023/04/06 09:45:21;;;;;;;13.37;7.70;;;11.90;80.40;;;;;;5068058;28;20241;-73
2023/04/06 09:47:53;;;;;;;11.97;7.23;;;12.00;81.50;;;;;;5066506;28;20611;-76
2023/04/06 09:50:25;;;;;;;14.60;8.07;;;12.00;81.40;;;;;;5063680;28;20187;-74
2023/04/06 09:52:55;;;;;;;14.33;7.87;;;12.10;81.30;;;;;;5066833;28;20186;-75
2023/04/06 09:55:28;;;;;;;15.33;7.80;;;12.20;81.40;;;;;;5069483;28;20586;-74
2023/04/06 09:58:02;;;;;;;12.83;7.87;;;12.20;79.90;;;;;;5071022;28;20194;-75
2023/04/06 10:00:33;;;;;;;13.03;8.43;;;12.20;79.60;;;;;;5074280;28;20186;-77
2023/04/06 10:03:10;;;;;;;14.70;7.63;;;12.20;80.00;;;;;;5072356;28;20193;-76
2023/04/06 10:05:47;;;;;;;15.17;8.83;;;12.20;79.30;;;;;;5072546;28;20218;-74
2023/04/06 10:08:17;;;;;;;12.40;7.37;;;12.20;79.00;;;;;;5066769;28;20691;-75
2023/04/06 10:10:47;;;;;;;21.47;7.27;;;12.20;78.90;;;;;;5072532;28;20254;-77
2023/04/06 10:13:16;;;;;;;13.00;7.83;;;12.20;78.90;;;;;;5071771;28;20235;-74
2023/04/06 10:15:45;;;;;;;14.57;8.13;;;12.20;79.60;;;;;;5070601;28;20190;-74
2023/04/06 10:18:15;;;;;;;16.17;7.70;;;12.20;79.70;;;;;;5072981;28;21682;-76
2023/04/06 10:20:50;;;;;;;14.13;7.53;;;12.30;80.00;;;;;;5066638;28;20186;-76
2023/04/06 10:23:25;;;;;;;14.10;8.07;;;12.40;80.10;;;;;;5065353;28;20232;-76
2023/04/06 10:25:54;;;;;;;14.10;8.17;;;12.50;79.70;;;;;;5066358;28;20209;-74
2023/04/06 10:28:25;;;;;;;15.97;8.70;;;12.50;79.90;;;;;;5065950;28;20191;-76
2023/04/06 10:30:59;;;;;;;13.50;7.80;;;12.60;79.80;;;;;;5069325;28;20217;-75
2023/04/06 10:33:28;;;;;;;13.10;8.03;;;12.60;79.30;;;;;;5090116;28;20228;-74
2023/04/06 10:35:59;;;;;;;13.77;8.97;;;12.60;79.20;;;;;;5099440;28;20193;-77
2023/04/06 10:38:35;;;;;;;12.83;7.70;;;12.70;79.90;;;;;;5087517;28;20564;-74
2023/04/06 10:41:09;;;;;;;10.47;6.60;;;12.70;78.50;;;;;;5090085;28;20229;-77
2023/04/06 10:43:39;;;;;;;12.23;7.50;;;12.80;78.00;;;;;;5092725;28;20213;-77
2023/04/06 10:46:09;;;;;;;12.67;7.93;;;12.80;77.80;;;;;;5090414;28;20689;-77
2023/04/06 10:48:39;;;;;;;14.10;7.30;;;12.80;77.80;;;;;;5090938;28;20284;-76
2023/04/06 10:51:14;;;;;;;13.93;8.10;;;12.90;77.80;;;;;;5089051;28;20607;-76
2023/04/06 10:53:44;;;;;;;13.40;7.90;;;12.80;77.40;;;;;;5086972;28;20220;-75
2023/04/06 10:56:14;;;;;;;11.00;6.70;;;12.80;77.10;;;;;;5095597;28;20194;-75
2023/04/06 10:58:47;;;;;;;13.77;6.67;;;12.90;77.80;;;;;;5091193;28;20642;-74
2023/04/06 11:01:17;;;;;;;13.73;6.93;;;12.90;77.10;;;;;;5092758;28;20205;-76
2023/04/06 11:03:46;;;;;;;13.30;7.27;;;12.90;77.10;;;;;;5085345;28;20208;-74
2023/04/06 11:06:21;;;;;;;15.37;6.97;;;13.00;77.20;;;;;;5087943;28;20205;-76
2023/04/06 11:08:50;;;;;;;15.73;7.50;;;13.00;77.80;;;;;;5083891;28;20220;-74
2023/04/06 11:11:19;;;;;;;13.90;8.50;;;13.10;77.90;;;;;;5089760;28;20194;-73
2023/04/06 11:13:52;;;;;;;11.13;7.43;;;13.20;77.90;;;;;;5086072;28;20654;-75
2023/04/06 11:16:22;;;;;;;10.70;7.60;;;13.20;77.50;;;;;;5088075;28;20190;-75
2023/04/06 11:18:53;;;;;;;17.03;8.80;;;13.30;77.50;;;;;;5091213;28;20189;-74
2023/04/06 11:21:35;;;;;;;11.13;7.80;;;13.30;77.30;;;;;;5091919;28;20201;-76
2023/04/06 11:24:11;;;;;;;12.67;8.37;;;13.30;77.30;;;;;;5087905;28;20192;-77
2023/04/06 11:26:45;;;;;;;13.67;7.03;;;13.40;77.40;;;;;;5091008;28;20623;-73
2023/04/06 11:29:16;;;;;;;11.07;7.37;;;13.50;77.00;;;;;;5082825;28;20222;-76
2023/04/06 11:31:47;;;;;;;11.33;7.43;;;13.50;76.10;;;;;;5089281;28;20220;-74
2023/04/06 11:34:19;;;;;;;13.77;7.70;;;13.60;77.20;;;;;;5089160;28;20189;-72
2023/04/06 11:36:50;;;;;;;10.80;6.50;;;13.70;76.40;;;;;;5090125;28;20194;-75
2023/04/06 11:43:15;;;;;;;10.40;6.50;;;13.80;76.00;;;;;;5069641;28;20197;-74
2023/04/06 11:45:44;;;;;;;10.53;6.97;;;13.80;74.50;;;;;;5095413;28;20225;-72
2023/04/06 11:48:21;;;;;;;12.87;6.80;;;13.90;74.20;;;;;;5084753;28;20252;-73
2023/04/06 11:50:57;;;;;;;9.13;5.97;;;13.90;74.70;;;;;;5094985;28;20878;-73
2023/04/06 11:53:27;;;;;;;10.20;6.63;;;13.90;74.70;;;;;;5053343;28;20889;-72
2023/04/06 11:55:56;;;;;;;11.20;6.40;;;13.90;74.40;;;;;;5095830;28;20215;-72
2023/04/06 11:58:24;;;;;;;9.97;6.60;;;13.90;74.10;;;;;;5093822;28;20281;-71
2023/04/06 12:00:53;;;;;;;9.97;6.87;;;13.90;73.50;;;;;;5094841;28;20221;-73
2023/04/06 12:03:21;;;;;;;10.10;6.10;;;13.90;73.40;;;;;;5099015;28;20194;-72
2023/04/06 12:05:50;;;;;;;10.20;6.30;;;13.90;73.90;;;;;;5097752;28;20225;-73
2023/04/06 12:08:18;;;;;;;10.03;6.70;;;13.80;74.10;;;;;;5097028;28;20193;-72
2023/04/06 12:10:48;;;;;;;11.97;7.03;;;13.90;74.20;;;;;;5091238;28;20858;-74
2023/04/06 12:13:17;;;;;;;11.60;6.70;;;13.90;74.40;;;;;;5090081;28;20247;-73
2023/04/06 12:15:45;;;;;;;11.33;6.30;;;13.90;73.70;;;;;;5098994;28;20246;-71
2023/04/06 12:18:13;;;;;;;10.57;6.47;;;13.90;74.10;;;;;;5099541;28;20205;-72
2023/04/06 12:20:42;;;;;;;10.93;6.70;;;14.00;73.70;;;;;;5092078;28;20224;-73
2023/04/06 12:23:10;;;;;;;13.03;7.10;;;14.00;73.00;;;;;;5095789;28;20669;-74
2023/04/06 12:25:41;;;;;;;8.73;5.90;;;14.00;73.10;;;;;;5091313;28;20190;-71
2023/04/06 12:28:11;;;;;;;11.80;6.27;;;14.10;73.00;;;;;;5089821;28;20198;-72
2023/04/06 12:30:40;;;;;;;11.70;6.57;;;14.10;73.00;;;;;;5091976;28;20631;-72
2023/04/06 12:33:09;;;;;;;8.17;5.37;;;14.20;72.10;;;;;;5092993;28;20217;-73
2023/04/06 12:35:38;;;;;;;9.17;5.07;;;14.20;72.40;;;;;;5099220;28;20193;-72
2023/04/06 12:38:07;;;;;;;7.17;4.30;;;14.30;72.70;;;;;;5105013;28;20261;-73
2023/04/06 12:40:38;;;;;;;7.67;4.27;;;14.30;72.00;;;;;;5089601;28;20607;-75
2023/04/06 12:43:07;;;;;;;8.30;5.40;;;14.50;71.90;;;;;;5095116;28;20189;-72
2023/04/06 12:45:37;;;;;;;11.70;6.07;;;14.50;71.80;;;;;;5090664;28;20259;-72
2023/04/06 12:48:05;;;;;;;10.37;5.70;;;14.60;71.10;;;;;;5096342;28;20261;-73
2023/04/06 12:50:33;;;;;;;9.80;6.13;;;14.70;71.40;;;;;;5092835;28;20193;-71
2023/04/06 12:53:02;;;;;;;8.77;5.67;;;14.80;70.80;;;;;;5087909;28;20206;-72
2023/04/06 12:55:34;;;;;;;9.00;6.03;;;15.00;70.50;;;;;;5097443;28;20198;-74
2023/04/06 12:58:02;;;;;;;11.07;5.13;;;15.10;70.40;;;;;;5086374;28;20224;-73